Aérodrome :
LOGIN :

S'inscrire | Disclaimer

   EN    FR    IT 

 










Légende :    VFR   VFR Marginal   IFR   IFR Intensif   IFR Très Intensif
Visi : 
Plafond : 
>= 8 km
>= 3000ft
5 à 8 km
1000 à 3000 ft
1500m à 5 km
500 à 1000 ft
800 à 1500m
200 à 500 ft
< 800m
< 200 ft
Symboles :   Orages  Brouillard  Fortes neiges  Fortes précipitations  Vent > 20 kt
SIGMETs :   Divers  Orages  Givrage  Turbulence  Onde Orograph.  Cendres Volcan.







- Altitude de l'aérodrome : 364 ft
- Code IATA : FRA


EDDF - Frankfurt Int.

DERNIER METAR :
  • 270650Z 21009KT 7000 -RADZ FEW004 SCT006 BKN045 14/13 Q1011 NOSIG

METARs EXPIRÉS :
  • 270620Z 21008KT 6000 -RADZ FEW005 BKN043 13/13 Q1011 NOSIG
  • 270550Z 23010KT 7000 -RADZ FEW006 SCT019 BKN029 13/12 Q1011 TEMPO 4000 BKN012
  • 270520Z 23009KT 9999 -RA FEW025 BKN033 15/11 Q1010 NOSIG
  • 270450Z 20008KT 9999 FEW036 BKN041 14/11 Q1010 NOSIG
  • 270420Z 19006KT 9999 FEW046 12/10 Q1010 NOSIG

TAF TAF EDDF
Valide du 27 à 06h jusqu'au 28 à 12h UTC


270500Z 2706/2812 21007KT CAVOK
BECMG 2706/2708 BKN025
PROB30
TEMPO 2713/2720 SHRA BKN020TCU
BECMG 2718/2721 VRB03KT
BECMG 2804/2807 25007KT
PROB30
TEMPO 2809/2812 SHRA BKN020CB
Pas de NOTAMs connus pour ce terrain.



MET'MAP, la Météo Aéronautique d'un coup d'oeil ! - Copyright ORBIFLY Décembre 2007 - Disclaimer

ORBIFLY MET'MAP TEAM :

Programmation & Développement : Alexandra Zaïnal
Conception & Développement : Baudouin d'Aumeries
Co-Programmation & Développement : Marc-Olivier Méhu
Soutien technique & logistique : Manuel Goepfert

Contact : metmap@orbifly.com




SOURCES & CREDITS :

   NOAA